Time;durP1;ratioP1;P1;durP2;ratioP2;P2;SDS_P1;SDS_P2;PMS_P1;PMS_P2;Temp;Humidity;BMP_temperature;BMP_pressure;BME280_temperature;BME280_humidity;BME280_pressure;Samples;Min_cycle;Max_cycle;Signal;HPM_P1;HPM_P2
2022/07/18 00:00:22;;;;;;;6.22;3.70;;;;;;;18.83;54.76;102303.59;5096913;27;20125;-63
2022/07/18 00:02:48;;;;;;;4.07;3.15;;;;;;;18.76;54.47;102308.56;5113887;27;20031;-62
2022/07/18 00:05:13;;;;;;;9.13;3.70;;;;;;;18.65;54.78;102296.84;5097573;27;20031;-62
2022/07/18 00:07:39;;;;;;;7.55;3.78;;;;;;;18.58;54.81;102294.59;5112816;27;20030;-62
2022/07/18 00:10:05;;;;;;;4.97;3.30;;;;;;;18.53;54.89;102294.09;5086994;27;20027;-62
2022/07/18 00:12:30;;;;;;;6.18;3.58;;;;;;;18.59;54.76;102298.19;5114008;27;20120;-62
2022/07/18 00:14:56;;;;;;;7.03;4.05;;;;;;;18.59;54.80;102293.66;5114724;27;20084;-62
2022/07/18 00:17:22;;;;;;;7.07;3.53;;;;;;;18.57;54.92;102294.72;5113110;27;20105;-62
2022/07/18 00:19:47;;;;;;;7.45;3.83;;;;;;;18.59;54.84;102295.47;5096790;27;20031;-62
2022/07/18 00:22:15;;;;;;;8.15;4.05;;;;;;;18.56;54.85;102279.50;5113175;27;20114;-62
2022/07/18 00:24:43;;;;;;;4.50;3.93;;;;;;;18.46;54.93;102273.94;5132062;27;20012;-62
2022/07/18 00:27:11;;;;;;;9.35;4.15;;;;;;;18.52;54.72;102284.28;5112747;27;20024;-62
2022/07/18 00:29:39;;;;;;;7.18;4.60;;;;;;;18.52;54.75;102275.34;5131033;27;20118;-62
2022/07/18 00:32:07;;;;;;;8.70;4.30;;;;;;;18.50;54.84;102279.97;5131440;27;20095;-62
2022/07/18 00:34:32;;;;;;;7.95;3.92;;;;;;;18.46;55.29;102273.09;5129342;27;20553;-63
2022/07/18 00:36:58;;;;;;;7.47;3.88;;;;;;;18.43;55.43;102276.88;5113055;27;20053;-62
2022/07/18 00:39:26;;;;;;;11.93;4.30;;;;;;;18.38;55.47;102261.06;5131877;27;20037;-62
2022/07/18 00:41:51;;;;;;;7.57;4.32;;;;;;;18.22;55.85;102259.59;5113112;27;20041;-62
2022/07/18 00:44:22;;;;;;;7.10;4.40;;;;;;;18.31;55.42;102265.16;5132249;27;20030;-62
2022/07/18 00:46:53;;;;;;;7.97;4.05;;;;;;;18.29;55.30;102264.41;5131743;27;20450;-62
2022/07/18 00:49:19;;;;;;;6.30;4.57;;;;;;;18.27;55.64;102269.06;5132139;27;20480;-62
2022/07/18 00:51:45;;;;;;;13.57;4.93;;;;;;;18.29;55.73;102258.16;5130495;27;20076;-62
2022/07/18 00:54:11;;;;;;;11.23;4.55;;;;;;;18.25;55.88;102260.22;5112494;27;20027;-62
2022/07/18 00:56:36;;;;;;;9.35;4.80;;;;;;;18.16;56.38;102260.91;5113628;27;20027;-62
2022/07/18 00:59:02;;;;;;;7.75;4.53;;;;;;;18.12;56.26;102262.97;5131372;27;20027;-62
2022/07/18 01:01:43;;;;;;;8.90;4.60;;;;;;;18.11;56.37;102263.06;5131377;27;20508;-62
2022/07/18 01:04:22;;;;;;;8.60;4.18;;;;;;;18.16;56.30;102260.91;5132299;27;20087;-62
2022/07/18 01:06:50;;;;;;;7.45;4.63;;;;;;;18.03;56.69;102263.63;5130681;27;20031;-62
2022/07/18 01:09:19;;;;;;;7.15;5.10;;;;;;;17.97;56.64;102253.31;5131569;27;20726;-62
2022/07/18 01:11:48;;;;;;;6.65;4.60;;;;;;;17.90;56.72;102250.19;5129287;27;20027;-62
2022/07/18 01:14:14;;;;;;;8.23;4.60;;;;;;;18.02;56.62;102248.44;5130843;27;20073;-62
2022/07/18 01:16:40;;;;;;;6.85;4.40;;;;;;;17.98;56.82;102248.78;5131094;27;20018;-62
2022/07/18 01:19:06;;;;;;;8.25;4.53;;;;;;;17.93;56.85;102239.19;5130293;27;20100;-62
2022/07/18 01:21:31;;;;;;;6.80;4.30;;;;;;;17.82;56.73;102232.84;5110784;27;20035;-62
2022/07/18 01:23:57;;;;;;;8.55;4.88;;;;;;;17.87;56.88;102238.78;5129797;27;20035;-63
2022/07/18 01:26:23;;;;;;;7.15;4.72;;;;;;;17.81;57.00;102234.69;5130992;27;20027;-63
2022/07/18 01:28:48;;;;;;;6.75;5.30;;;;;;;17.77;57.22;102241.25;5130828;27;20470;-62
2022/07/18 01:31:14;;;;;;;9.20;5.32;;;;;;;17.78;57.03;102236.75;5130419;27;20067;-62
2022/07/18 01:33:40;;;;;;;8.27;5.07;;;;;;;17.73;57.26;102242.41;5110574;27;20029;-62
2022/07/18 01:36:07;;;;;;;14.15;5.80;;;;;;;17.63;57.46;102241.34;5130148;27;20027;-62
2022/07/18 01:38:33;;;;;;;8.23;5.45;;;;;;;17.60;57.53;102231.66;5130071;27;20130;-62
2022/07/18 01:41:03;;;;;;;10.70;5.93;;;;;;;17.50;57.79;102235.97;5131192;27;20049;-62
2022/07/18 01:43:31;;;;;;;9.65;6.72;;;;;;;17.54;57.95;102240.16;5128889;27;20027;-62
2022/07/18 01:45:58;;;;;;;11.20;6.88;;;;;;;17.58;57.74;102241.66;5130882;27;20023;-63
2022/07/18 01:48:24;;;;;;;10.10;7.40;;;;;;;17.54;58.07;102242.00;5111950;27;20088;-62
2022/07/18 01:50:50;;;;;;;12.93;7.47;;;;;;;17.59;57.88;102247.91;5110683;27;20035;-62
2022/07/18 01:53:15;;;;;;;11.10;7.30;;;;;;;17.57;58.20;102249.84;5107707;28;20082;-62
2022/07/18 01:55:44;;;;;;;15.48;6.90;;;;;;;17.54;58.65;102242.00;5110455;28;20076;-62
2022/07/18 01:58:10;;;;;;;10.48;7.53;;;;;;;17.48;58.75;102238.75;5109992;28;20024;-62
2022/07/18 02:00:38;;;;;;;9.13;7.45;;;;;;;17.51;58.62;102242.22;5107599;28;20550;-62
2022/07/18 02:03:06;;;;;;;9.32;7.22;;;;;;;17.45;58.83;102238.13;5108673;28;20043;-62
2022/07/18 02:05:32;;;;;;;12.02;7.78;;;;;;;17.47;59.12;102238.84;5110111;28;20478;-63
2022/07/18 02:07:57;;;;;;;8.20;7.00;;;;;;;17.40;59.13;102232.19;5109475;28;20456;-62
2022/07/18 02:10:23;;;;;;;8.60;6.78;;;;;;;17.40;59.25;102230.38;5108189;28;20140;-62
2022/07/18 02:12:49;;;;;;;13.32;7.20;;;;;;;17.37;59.45;102224.34;5109248;28;20092;-62
2022/07/18 02:15:15;;;;;;;12.80;7.45;;;;;;;17.31;59.45;102222.94;5110356;28;20583;-62
2022/07/18 02:17:42;;;;;;;10.88;6.78;;;;;;;17.28;59.65;102215.09;5109189;28;20378;-62
2022/07/18 02:20:12;;;;;;;13.23;7.13;;;;;;;17.31;59.64;102214.03;5108457;28;20024;-62
2022/07/18 02:22:38;;;;;;;8.85;7.00;;;;;;;17.28;59.89;102214.22;5108315;28;20394;-62
2022/07/18 02:25:05;;;;;;;11.98;7.35;;;;;;;17.22;59.60;102218.22;5109707;28;20038;-62
2022/07/18 02:27:30;;;;;;;13.32;7.50;;;;;;;17.18;60.07;102204.13;5109850;28;20431;-62
2022/07/18 02:29:56;;;;;;;8.13;6.63;;;;;;;17.19;60.10;102204.97;5111666;28;20156;-62
2022/07/18 02:32:23;;;;;;;12.68;7.15;;;;;;;17.14;60.14;102212.50;5113886;28;20411;-62
2022/07/18 02:34:49;;;;;;;12.52;6.85;;;;;;;17.04;60.74;102212.28;5112672;28;20498;-62
2022/07/18 02:37:14;;;;;;;10.68;7.00;;;;;;;17.08;60.51;102205.72;5111379;28;20104;-62
2022/07/18 02:39:40;;;;;;;9.32;6.45;;;;;;;17.04;60.91;102209.59;5113804;28;20059;-62
2022/07/18 02:42:09;;;;;;;10.20;7.03;;;;;;;16.93;61.27;102188.81;5110633;28;20023;-62
2022/07/18 02:44:37;;;;;;;14.90;5.85;;;;;;;17.01;60.99;102201.72;5113509;28;20024;-62
2022/07/18 02:47:03;;;;;;;12.02;6.80;;;;;;;16.95;61.08;102196.78;5111697;28;20557;-62
2022/07/18 02:49:29;;;;;;;7.80;6.00;;;;;;;16.95;61.26;102197.63;5113756;28;20164;-62
2022/07/18 02:52:06;;;;;;;9.23;6.57;;;;;;;16.98;61.39;102194.75;5114767;27;20055;-62
2022/07/18 02:54:34;;;;;;;11.07;6.18;;;;;;;16.89;62.09;102199.88;5133383;27;20038;-62
2022/07/18 02:56:59;;;;;;;10.10;6.80;;;;;;;16.88;62.12;102198.16;5133771;27;20027;-62
2022/07/18 02:59:26;;;;;;;11.90;6.30;;;;;;;16.78;62.35;102190.72;5134530;27;20031;-62
2022/07/18 03:01:51;;;;;;;10.25;6.40;;;;;;;16.85;62.18;102204.59;5133853;27;20027;-62
2022/07/18 03:04:18;;;;;;;9.57;6.20;;;;;;;16.82;62.29;102201.25;5132709;27;20194;-62
2022/07/18 03:06:44;;;;;;;9.35;5.85;;;;;;;16.74;62.61;102193.69;5133612;27;20015;-62
2022/07/18 03:09:09;;;;;;;7.93;6.03;;;;;;;16.73;62.54;102191.97;5081678;27;20030;-62
2022/07/18 03:11:38;;;;;;;8.35;6.03;;;;;;;16.73;62.68;102189.25;5096387;27;20027;-62
2022/07/18 03:14:03;;;;;;;10.23;6.15;;;;;;;16.72;62.75;102192.94;5130911;27;20023;-62
2022/07/18 03:16:29;;;;;;;7.93;6.03;;;;;;;16.70;62.85;102182.28;5132344;27;20034;-62
2022/07/18 03:18:55;;;;;;;10.70;6.18;;;;;;;16.67;62.99;102173.56;5114491;27;20042;-62
2022/07/18 03:21:22;;;;;;;9.00;6.13;;;;;;;16.62;62.76;102178.38;5132161;27;20469;-62
2022/07/18 03:23:49;;;;;;;8.15;5.75;;;;;;;16.65;62.30;102167.44;5114530;27;20045;-62
2022/07/18 03:26:17;;;;;;;7.65;5.45;;;;;;;16.51;62.98;102163.00;5132742;27;20110;-62
2022/07/18 03:28:42;;;;;;;8.27;5.72;;;;;;;16.43;63.10;102158.13;5114733;27;20042;-62
2022/07/18 03:31:11;;;;;;;9.13;6.50;;;;;;;16.48;63.29;102153.31;5133232;27;20470;-63
2022/07/18 03:33:36;;;;;;;7.80;5.30;;;;;;;16.54;63.05;102157.44;5133470;27;20033;-62
2022/07/18 03:36:02;;;;;;;11.32;5.88;;;;;;;16.57;63.15;102166.13;5132586;27;20039;-62
2022/07/18 03:38:28;;;;;;;6.30;5.10;;;;;;;16.49;63.35;102163.09;5132342;27;20031;-62
2022/07/18 03:40:53;;;;;;;6.38;5.15;;;;;;;16.46;63.33;102160.63;5096767;27;20019;-62
2022/07/18 03:43:19;;;;;;;6.10;5.18;;;;;;;16.48;63.50;102152.47;5132283;27;20390;-62
2022/07/18 03:45:45;;;;;;;9.57;6.03;;;;;;;16.52;63.29;102162.03;5132940;27;20031;-62
2022/07/18 03:48:10;;;;;;;9.75;6.28;;;;;;;16.41;63.57;102160.06;5132769;27;20026;-62
2022/07/18 03:50:36;;;;;;;9.75;5.43;;;;;;;16.42;63.51;102169.00;5114085;27;20515;-62
2022/07/18 03:53:04;;;;;;;11.45;5.70;;;;;;;16.38;63.56;102168.31;5131744;27;20092;-62
2022/07/18 03:55:29;;;;;;;8.90;5.55;;;;;;;16.41;63.57;102161.88;5115821;27;20027;-62
2022/07/18 03:57:55;;;;;;;8.07;5.75;;;;;;;16.29;63.87;102161.72;5095262;27;20508;-62
2022/07/18 04:00:21;;;;;;;7.65;5.50;;;;;;;16.32;63.75;102156.19;5133704;27;20076;-62
2022/07/18 04:02:47;;;;;;;9.52;5.70;;;;;;;16.29;64.19;102160.88;5132385;27;20039;-62
2022/07/18 04:05:17;;;;;;;8.52;5.85;;;;;;;16.31;63.96;102158.97;5133708;27;20054;-63
2022/07/18 04:07:43;;;;;;;9.15;5.45;;;;;;;16.33;63.71;102159.72;5131470;27;20485;-62
2022/07/18 04:10:09;;;;;;;7.55;5.25;;;;;;;16.31;63.66;102157.13;5132361;27;20067;-62
2022/07/18 04:12:44;;;;;;;8.48;5.75;;;;;;;16.30;63.75;102146.50;5130763;27;20545;-62
2022/07/18 04:15:10;;;;;;;7.82;5.57;;;;;;;16.25;63.94;102156.69;5131321;27;20051;-62
2022/07/18 04:17:35;;;;;;;10.98;5.55;;;;;;;16.31;63.95;102150.91;5131593;27;20061;-62
2022/07/18 04:20:02;;;;;;;12.13;6.10;;;;;;;16.29;64.10;102152.81;5114484;27;20030;-62
2022/07/18 04:22:30;;;;;;;7.28;5.70;;;;;;;16.33;64.13;102151.66;5131672;27;20023;-62
2022/07/18 04:24:55;;;;;;;6.03;5.20;;;;;;;16.32;63.97;102142.75;5132549;27;20079;-62
2022/07/18 04:27:23;;;;;;;7.60;5.30;;;;;;;16.36;64.20;102138.03;5095554;27;20035;-63
2022/07/18 04:29:48;;;;;;;7.63;5.65;;;;;;;16.35;63.96;102141.66;5131321;27;20023;-62
2022/07/18 04:32:14;;;;;;;9.45;6.32;;;;;;;16.26;64.48;102134.22;5096022;27;20542;-62
2022/07/18 04:34:40;;;;;;;7.40;6.10;;;;;;;16.31;64.42;102132.09;5131589;27;20473;-63
2022/07/18 04:37:05;;;;;;;10.55;5.78;;;;;;;16.31;64.58;102137.47;5131406;27;20063;-62
2022/07/18 04:39:31;;;;;;;9.13;5.90;;;;;;;16.31;64.19;102129.41;5131496;27;20509;-63
2022/07/18 04:41:56;;;;;;;10.82;5.60;;;;;;;16.37;63.86;102125.47;5131971;27;20039;-62
2022/07/18 04:44:23;;;;;;;9.68;5.97;;;;;;;16.33;64.01;102135.56;5131188;27;20023;-62
2022/07/18 04:46:48;;;;;;;9.20;5.55;;;;;;;16.37;63.86;102139.75;5109906;27;20034;-62
2022/07/18 04:49:14;;;;;;;10.63;5.63;;;;;;;16.49;63.92;102138.06;5087338;27;20031;-63
2022/07/18 04:51:40;;;;;;;12.45;6.00;;;;;;;16.51;63.91;102131.63;5130164;27;20505;-63
2022/07/18 04:54:06;;;;;;;11.02;6.13;;;;;;;16.52;63.86;102130.66;5113257;27;20038;-62
2022/07/18 04:56:32;;;;;;;10.52;5.43;;;;;;;16.53;63.91;102134.19;5112105;27;20027;-63
2022/07/18 04:58:58;;;;;;;10.93;5.53;;;;;;;16.52;64.30;102146.78;5096171;27;20031;-62
2022/07/18 05:01:26;;;;;;;8.02;5.63;;;;;;;16.53;64.07;102140.44;5112995;27;20079;-62
2022/07/18 05:03:51;;;;;;;8.38;5.82;;;;;;;16.50;64.20;102131.72;5113936;27;20120;-62
2022/07/18 05:06:19;;;;;;;9.18;5.72;;;;;;;16.63;64.20;102142.50;5129137;27;20381;-62
2022/07/18 05:08:45;;;;;;;12.95;5.32;;;;;;;16.82;63.95;102136.75;5130932;27;20025;-62
2022/07/18 05:11:10;;;;;;;9.25;5.88;;;;;;;16.87;63.22;102135.47;5129240;27;20031;-62
2022/07/18 05:13:35;;;;;;;12.80;5.85;;;;;;;16.95;62.92;102134.97;5112970;27;20080;-63
2022/07/18 05:16:01;;;;;;;9.73;5.13;;;;;;;17.05;63.30;102138.72;5088497;27;20027;-63
2022/07/18 05:18:27;;;;;;;11.38;5.10;;;;;;;17.04;62.85;102139.69;5085358;28;20059;-62
2022/07/18 05:20:53;;;;;;;9.50;5.50;;;;;;;17.07;62.92;102138.63;5110863;27;20039;-62
2022/07/18 05:23:19;;;;;;;16.33;6.32;;;;;;;17.13;62.68;102144.44;5110629;27;20091;-62
2022/07/18 05:25:47;;;;;;;12.15;5.80;;;;;;;17.17;62.70;102150.44;5112368;27;20023;-62
2022/07/18 05:28:12;;;;;;;16.13;6.40;;;;;;;17.25;62.41;102140.88;5090105;27;20401;-62
2022/07/18 05:30:38;;;;;;;15.60;6.47;;;;;;;17.24;62.46;102139.16;5096301;27;20027;-62
2022/07/18 05:33:05;;;;;;;18.17;5.43;;;;;;;17.38;62.28;102148.94;5131093;27;20034;-62
2022/07/18 05:35:31;;;;;;;17.00;5.97;;;;;;;17.47;62.00;102142.03;5096694;27;20034;-62
2022/07/18 05:37:57;;;;;;;19.50;6.25;;;;;;;17.45;62.74;102142.16;5088637;27;20474;-62
2022/07/18 05:40:23;;;;;;;14.23;5.47;;;;;;;17.57;62.00;102145.78;5113713;27;20027;-62
2022/07/18 05:42:49;;;;;;;19.30;6.20;;;;;;;17.68;60.88;102143.19;5113754;28;20121;-62
2022/07/18 05:45:15;;;;;;;15.52;5.85;;;;;;;17.87;58.57;102150.78;5127897;27;20019;-62
2022/07/18 05:47:41;;;;;;;13.93;6.10;;;;;;;17.98;58.58;102146.47;5132139;27;20099;-62
2022/07/18 05:50:10;;;;;;;13.73;5.35;;;;;;;18.19;56.16;102139.50;5113303;27;20106;-62
2022/07/18 05:52:35;;;;;;;14.93;5.43;;;;;;;18.30;57.34;102146.78;5130691;27;20043;-62
2022/07/18 05:55:01;;;;;;;12.13;5.80;;;;;;;18.49;55.34;102141.69;5096767;27;20027;-62
2022/07/18 05:57:28;;;;;;;12.93;5.72;;;;;;;18.54;56.54;102146.75;5113765;27;20023;-62
2022/07/18 05:59:56;;;;;;;9.70;5.35;;;;;;;18.65;55.32;102141.41;5096509;28;20063;-62
2022/07/18 06:02:22;;;;;;;10.82;5.70;;;;;;;18.77;55.27;102143.19;5112339;28;20027;-63
2022/07/18 06:04:48;;;;;;;13.32;6.03;;;;;;;18.89;54.24;102143.22;5118317;27;20401;-62
2022/07/18 06:07:16;;;;;;;13.82;6.68;;;;;;;19.04;53.09;102142.88;5101016;27;20118;-62
2022/07/18 06:09:42;;;;;;;10.70;5.47;;;;;;;19.11;53.37;102140.53;5137548;27;20023;-62
2022/07/18 06:12:11;;;;;;;11.70;5.95;;;;;;;19.25;53.98;102151.09;5120112;27;20394;-62
2022/07/18 06:14:37;;;;;;;12.75;6.30;;;;;;;19.40;52.71;102150.88;5138645;27;20102;-62
2022/07/18 06:17:03;;;;;;;16.02;7.18;;;;;;;19.50;51.67;102152.72;5137605;27;20106;-61
2022/07/18 06:19:29;;;;;;;16.48;7.00;;;;;;;19.63;50.51;102155.28;5120106;27;20525;-62
2022/07/18 06:21:55;;;;;;;15.63;7.15;;;;;;;19.73;51.82;102136.53;5119796;27;20023;-62
2022/07/18 06:24:24;;;;;;;14.02;6.07;;;;;;;19.78;53.04;102142.41;5103211;27;20394;-62
2022/07/18 06:26:49;;;;;;;17.27;6.80;;;;;;;19.88;52.81;102126.31;5138557;27;20038;-62
2022/07/18 06:29:15;;;;;;;11.05;6.35;;;;;;;20.00;52.16;102127.16;5101242;27;20020;-62
2022/07/18 06:31:41;;;;;;;15.15;6.18;;;;;;;20.02;53.67;102127.88;5119531;27;20459;-62
2022/07/18 06:34:06;;;;;;;14.38;5.88;;;;;;;20.04;51.74;102113.28;5137841;27;20042;-62
2022/07/18 06:36:31;;;;;;;16.60;6.47;;;;;;;20.15;52.13;102123.19;5137551;27;20038;-62
2022/07/18 06:38:57;;;;;;;11.50;5.82;;;;;;;20.17;54.89;102122.06;5102660;27;20080;-62
2022/07/18 06:41:22;;;;;;;15.55;5.63;;;;;;;20.22;52.71;102120.84;5119924;27;20474;-62
2022/07/18 06:43:48;;;;;;;12.98;6.05;;;;;;;20.39;50.30;102113.00;5102753;27;20062;-62
2022/07/18 06:46:13;;;;;;;10.85;5.63;;;;;;;20.43;50.53;102116.31;5136818;27;20027;-62
2022/07/18 06:48:39;;;;;;;13.65;5.82;;;;;;;20.55;48.97;102106.34;5116305;27;20393;-62
2022/07/18 06:51:08;;;;;;;16.73;5.88;;;;;;;20.64;48.96;102114.50;5134108;27;20469;-62
2022/07/18 06:53:36;;;;;;;11.05;5.20;;;;;;;20.74;50.33;102111.03;5137748;27;20482;-62
2022/07/18 06:56:02;;;;;;;12.20;5.30;;;;;;;20.86;48.98;102109.97;5137933;27;20076;-62
2022/07/18 06:58:30;;;;;;;10.38;5.10;;;;;;;20.98;48.03;102114.31;5118169;27;20039;-62
2022/07/18 07:00:56;;;;;;;12.75;4.97;;;;;;;21.12;47.27;102117.63;5120069;27;20046;-62
2022/07/18 07:03:24;;;;;;;10.35;4.65;;;;;;;21.21;47.37;102120.41;5138331;27;20043;-62
2022/07/18 07:05:49;;;;;;;7.22;4.40;;;;;;;21.25;47.27;102115.59;5138058;27;20439;-62
2022/07/18 07:08:15;;;;;;;12.75;4.05;;;;;;;21.32;49.90;102108.63;5098323;27;20019;-62
2022/07/18 07:10:41;;;;;;;12.00;4.32;;;;;;;21.36;46.86;102117.34;5099982;27;20059;-62
2022/07/18 07:13:06;;;;;;;11.20;4.15;;;;;;;21.46;46.61;102112.84;5117478;27;20102;-62
2022/07/18 07:15:32;;;;;;;12.40;4.20;;;;;;;21.53;45.65;102123.00;5125730;27;20035;-62
2022/07/18 07:17:57;;;;;;;11.98;4.28;;;;;;;21.64;46.01;102119.31;5131419;27;20081;-62
2022/07/18 07:20:23;;;;;;;14.77;4.30;;;;;;;21.72;45.19;102124.91;5128234;27;20030;-64
2022/07/18 07:22:51;;;;;;;10.70;4.82;;;;;;;21.78;46.82;102121.63;5090322;27;21858;-59
2022/07/18 07:25:17;;;;;;;8.45;4.10;;;;;;;21.94;45.13;102134.66;5128449;27;20105;-63
2022/07/18 07:27:44;;;;;;;9.35;4.20;;;;;;;22.01;48.44;102129.53;5125486;27;20094;-59
2022/07/18 07:30:11;;;;;;;12.75;3.78;;;;;;;22.08;46.22;102114.41;5130147;27;20371;-63
2022/07/18 07:32:38;;;;;;;26.50;4.80;;;;;;;22.11;49.49;102116.00;5128065;27;20031;-60
2022/07/18 07:35:06;;;;;;;11.00;3.70;;;;;;;22.26;49.06;102122.72;5127270;27;20066;-62
2022/07/18 07:37:33;;;;;;;7.45;3.05;;;;;;;22.17;46.58;102107.31;5112236;27;20053;-63
2022/07/18 07:39:58;;;;;;;8.48;3.53;;;;;;;22.19;48.31;102110.75;5133660;27;20385;-63
2022/07/18 07:42:25;;;;;;;9.05;3.15;;;;;;;22.40;45.12;102125.03;5134085;27;20102;-63
2022/07/18 07:44:50;;;;;;;7.15;3.45;;;;;;;22.56;46.46;102118.16;5134278;27;20478;-63
2022/07/18 07:47:15;;;;;;;12.68;3.20;;;;;;;22.55;47.93;102119.16;5097157;27;20023;-63
2022/07/18 07:49:41;;;;;;;9.80;2.90;;;;;;;22.60;44.28;102116.88;5097528;27;20110;-63
2022/07/18 07:52:07;;;;;;;6.72;2.83;;;;;;;22.73;45.98;102111.16;5132444;27;20043;-62
2022/07/18 07:54:33;;;;;;;6.88;2.72;;;;;;;22.82;42.40;102108.41;5113537;27;20081;-63
2022/07/18 07:57:00;;;;;;;7.28;2.78;;;;;;;22.87;41.52;102095.25;5096925;27;20023;-63
2022/07/18 07:59:25;;;;;;;5.88;2.75;;;;;;;22.99;42.19;102095.97;5114716;27;20720;-62
2022/07/18 08:01:51;;;;;;;5.95;2.60;;;;;;;23.07;43.78;102085.25;5131945;27;20091;-62
2022/07/18 08:04:17;;;;;;;5.78;2.10;;;;;;;23.09;41.82;102085.13;5115201;27;20344;-62
2022/07/18 08:06:42;;;;;;;6.63;2.47;;;;;;;23.11;40.85;102086.66;5114002;27;20019;-62
2022/07/18 08:09:09;;;;;;;5.18;2.50;;;;;;;23.24;41.97;102082.75;5114681;27;20080;-63
2022/07/18 08:11:34;;;;;;;7.75;2.60;;;;;;;23.28;41.99;102084.16;5132208;27;20019;-62
2022/07/18 08:14:00;;;;;;;7.65;2.85;;;;;;;23.34;41.02;102091.72;5132087;27;20129;-62
2022/07/18 08:16:26;;;;;;;7.53;2.45;;;;;;;23.43;39.61;102085.38;5114844;27;20034;-62
2022/07/18 08:18:51;;;;;;;5.22;2.40;;;;;;;23.51;41.24;102079.19;5113741;27;20031;-62
2022/07/18 08:21:17;;;;;;;7.03;2.45;;;;;;;23.56;39.19;102072.31;5131094;27;20269;-62
2022/07/18 08:23:43;;;;;;;7.82;2.28;;;;;;;23.71;40.58;102069.97;5132702;27;20504;-63
2022/07/18 08:26:08;;;;;;;7.18;2.35;;;;;;;23.75;40.99;102068.63;5113696;27;20058;-63
2022/07/18 08:28:33;;;;;;;8.85;2.30;;;;;;;23.88;40.39;102068.25;5132202;27;20030;-62
2022/07/18 08:30:59;;;;;;;3.92;2.58;;;;;;;23.93;41.14;102065.91;5114300;27;20078;-63
2022/07/18 08:33:25;;;;;;;9.15;2.63;;;;;;;23.96;40.83;102070.19;5132668;27;20496;-62
2022/07/18 08:35:50;;;;;;;7.60;2.63;;;;;;;24.05;41.36;102071.13;5132347;27;20545;-63
2022/07/18 08:38:16;;;;;;;9.38;2.53;;;;;;;24.16;41.12;102077.19;5111464;27;20089;-63
2022/07/18 08:40:41;;;;;;;11.82;2.70;;;;;;;24.14;39.86;102070.19;5111596;27;20104;-63
2022/07/18 08:43:10;;;;;;;5.25;2.47;;;;;;;24.28;39.18;102076.97;5132516;27;20043;-64
2022/07/18 08:45:41;;;;;;;6.40;2.10;;;;;;;24.26;40.59;102080.66;5131455;27;20023;-63
2022/07/18 08:48:07;;;;;;;7.65;2.83;;;;;;;24.35;40.80;102080.75;5132218;27;20030;-63
2022/07/18 08:50:33;;;;;;;9.52;2.67;;;;;;;24.33;40.14;102089.06;5130849;27;20031;-63
2022/07/18 08:53:02;;;;;;;7.93;2.58;;;;;;;24.48;40.28;102086.69;5096199;27;20104;-62
2022/07/18 08:55:30;;;;;;;7.35;2.50;;;;;;;24.47;39.82;102091.28;5124941;27;20030;-62
2022/07/18 08:57:57;;;;;;;10.30;2.67;;;;;;;24.51;40.67;102077.34;5110962;27;20122;-63
2022/07/18 09:00:23;;;;;;;5.20;2.80;;;;;;;24.62;41.14;102075.22;5112705;27;20042;-62
2022/07/18 09:03:02;;;;;;;7.40;2.85;;;;;;;24.67;40.59;102074.75;5129090;27;20034;-62
2022/07/18 09:05:29;;;;;;;8.82;2.70;;;;;;;24.73;39.61;102075.97;5130657;27;20023;-62
2022/07/18 09:08:21;;;;;;;7.88;2.90;;;;;;;24.86;38.76;102079.13;5129237;27;20031;-62
2022/07/18 09:10:58;;;;;;;8.82;2.40;;;;;;;24.97;38.63;102076.13;5111841;27;20033;-62
2022/07/18 09:13:34;;;;;;;6.45;2.33;;;;;;;25.06;39.09;102080.63;5127762;27;20516;-62
2022/07/18 09:16:07;;;;;;;12.10;2.63;;;;;;;25.12;39.42;102082.69;5113446;27;20500;-63
2022/07/18 09:18:38;;;;;;;9.18;3.13;;;;;;;25.21;38.84;102088.19;5110717;27;20031;-63
2022/07/18 09:21:14;;;;;;;6.43;2.20;;;;;;;25.27;40.13;102080.25;5129248;27;20015;-62
2022/07/18 09:23:42;;;;;;;9.07;2.35;;;;;;;25.34;39.86;102064.94;5131410;27;20027;-62
2022/07/18 09:26:10;;;;;;;10.77;2.83;;;;;;;25.51;38.89;102084.94;5131563;27;20486;-63
2022/07/18 09:28:50;;;;;;;9.53;2.93;;;;;;;25.41;39.57;102067.84;5130140;27;20019;-63
2022/07/18 09:31:25;;;;;;;4.85;2.40;;;;;;;25.64;39.30;102084.44;5112177;27;20392;-63
2022/07/18 09:33:55;;;;;;;11.40;2.53;;;;;;;25.61;39.38;102076.59;5112674;27;20046;-62
2022/07/18 09:36:21;;;;;;;7.68;2.30;;;;;;;25.72;39.55;102087.19;5110488;27;20076;-62
2022/07/18 09:38:47;;;;;;;4.35;2.70;;;;;;;25.82;38.65;102089.81;5110007;27;20091;-63
2022/07/18 09:41:13;;;;;;;8.95;2.22;;;;;;;25.89;38.84;102093.59;5130400;27;20031;-63
2022/07/18 09:43:39;;;;;;;8.48;2.42;;;;;;;25.95;37.67;102086.63;5129440;27;20034;-63
2022/07/18 09:46:06;;;;;;;6.07;2.63;;;;;;;26.12;38.15;102082.00;5127590;27;20023;-62
2022/07/18 09:48:32;;;;;;;7.88;2.35;;;;;;;26.16;37.57;102086.13;5109543;27;20015;-62
2022/07/18 09:51:05;;;;;;;6.60;2.20;;;;;;;26.19;38.66;102078.44;5112645;27;20019;-62
2022/07/18 09:53:32;;;;;;;7.53;2.42;;;;;;;26.20;37.88;102077.41;5130138;27;20040;-62
2022/07/18 09:56:13;;;;;;;6.47;2.50;;;;;;;26.37;38.13;102075.56;5130909;27;20561;-65
2022/07/18 09:58:49;;;;;;;5.50;2.63;;;;;;;26.39;37.44;102075.41;5126487;27;20114;-63
2022/07/18 10:01:17;;;;;;;4.35;1.98;;;;;;;26.44;38.06;102079.31;5129783;27;20023;-63
2022/07/18 10:03:43;;;;;;;7.95;2.45;;;;;;;26.55;38.54;102069.09;5112416;28;20031;-63
2022/07/18 10:06:08;;;;;;;6.50;2.63;;;;;;;26.77;38.80;102070.25;5130465;28;20030;-63
2022/07/18 10:08:39;;;;;;;4.97;2.17;;;;;;;26.86;37.39;102074.69;5111817;28;20398;-62
2022/07/18 10:11:06;;;;;;;6.18;2.20;;;;;;;27.05;37.54;102066.09;5129491;28;20031;-62
2022/07/18 10:13:34;;;;;;;8.77;2.58;;;;;;;27.10;36.91;102074.63;5130088;28;20011;-63
2022/07/18 10:16:03;;;;;;;5.10;2.50;;;;;;;27.31;36.93;102068.59;5129621;28;20151;-62
2022/07/18 10:18:30;;;;;;;5.50;2.20;;;;;;;27.40;35.76;102063.94;5130026;28;20019;-61
2022/07/18 10:21:02;;;;;;;9.93;2.20;;;;;;;27.59;35.43;102066.25;5130924;28;20038;-62
2022/07/18 10:23:46;;;;;;;2.78;1.90;;;;;;;27.63;35.59;102066.72;5130665;28;20394;-63
2022/07/18 10:26:24;;;;;;;3.67;2.30;;;;;;;27.64;34.37;102062.94;5112221;28;20019;-62
2022/07/18 10:28:55;;;;;;;6.95;2.15;;;;;;;27.68;34.16;102066.16;5128855;28;20554;-62
2022/07/18 10:31:37;;;;;;;6.28;2.72;;;;;;;27.75;34.02;102061.69;5130096;28;20050;-61
2022/07/18 10:34:06;;;;;;;12.32;2.80;;;;;;;27.73;34.06;102064.59;5111392;28;20084;-62
2022/07/18 10:36:32;;;;;;;18.02;2.30;;;;;;;27.76;33.60;102061.50;5129357;28;20037;-62
2022/07/18 10:39:20;;;;;;;7.82;2.50;;;;;;;27.79;34.98;102061.16;5128391;28;20027;-62
2022/07/18 10:41:45;;;;;;;8.23;2.30;;;;;;;27.94;34.51;102063.13;5130471;28;20409;-61
2022/07/18 10:44:29;;;;;;;5.97;2.13;;;;;;;28.04;35.61;102052.81;5130591;28;20023;-62
2022/07/18 10:47:03;;;;;;;5.38;2.10;;;;;;;28.11;34.03;102052.94;5130796;28;20038;-61
2022/07/18 10:49:50;;;;;;;6.53;2.33;;;;;;;28.22;34.34;102057.97;5110904;27;20091;-60
2022/07/18 10:52:24;;;;;;;8.65;2.00;;;;;;;28.38;34.60;102055.06;5132695;27;20371;-59
2022/07/18 10:57:29;;;;;;;6.25;2.20;;;;;;;28.41;34.24;102056.59;5126397;27;20046;-59
2022/07/18 11:00:10;;;;;;;7.20;2.20;;;;;;;28.42;33.72;102050.13;5128942;27;20065;-61
2022/07/18 11:02:43;;;;;;;6.70;2.30;;;;;;;28.42;33.10;102048.25;5133270;27;20076;-61
2022/07/18 11:05:27;;;;;;;4.07;2.20;;;;;;;28.42;33.62;102050.13;5133490;27;20023;-61
2022/07/18 11:07:58;;;;;;;18.70;2.88;;;;;;;28.52;32.54;102048.81;5114236;27;20050;-61
2022/07/18 11:10:46;;;;;;;12.18;2.50;;;;;;;28.52;33.49;102043.34;5133705;27;20041;-61
2022/07/18 11:13:24;;;;;;;7.15;2.60;;;;;;;28.56;32.99;102043.84;5131546;27;20023;-61
2022/07/18 11:16:14;;;;;;;8.90;2.40;;;;;;;28.61;33.56;102035.06;5131756;27;20031;-61
2022/07/18 11:18:43;;;;;;;18.17;3.92;;;;;;;28.77;31.19;102043.09;5134132;27;20027;-61
2022/07/18 11:21:14;;;;;;;;;;;;;;;28.76;32.66;102046.88;5134499;27;20015;-60
2022/07/18 11:23:43;;;;;;;7.03;2.30;;;;;;;28.84;31.10;102043.19;5134691;27;20426;-62
2022/07/18 11:26:15;;;;;;;13.80;3.38;;;;;;;28.96;31.03;102037.03;5132251;27;20065;-61